Koyuk, AK

10:47 AM AKDT on March 27, 2017 (GMT -0800)
Koyuk

Weather History for PAKK - July, 2014

Change the Weather History Date:

Monday, July 7, 2014

  Actual Average Record
Temperature  
Mean Temperature 70 °F -  
Max Temperature 84 °F 59 °F 84 °F (2014)
Min Temperature 57 °F 47 °F 42 °F (2001)
Cooling Degree Days 6    
Growing Degree Days 20 (Base 50)    
Moisture  
Dew Point 53 °F    
Average Humidity 65    
Maximum Humidity 88    
Minimum Humidity 33    
Precipitation  
Precipitation 0.00 in - - ()
Sea Level Pressure  
Sea Level Pressure 29.74 in    
Wind  
Wind Speed 6 mph (NNE)    
Max Wind Speed 15 mph    
Max Gust Speed 22 mph    
Visibility 10 miles    
Events      
Averages and records for this station are not official NWS values.
T = Trace of Precipitation, MM = Missing Value Source: NWS Daily Summary

Daily Weather History Graph

Daily Weather History Graph

Search for Another Location

Airport or City:

Trip Planner

Search our weather history database for the weather conditions in past years. The results will help you decide how hot, cold, wet, or windy it might be!

Date:

Astronomy

Jul. 07, 2014 Rise Set
Actual Time 4:18 AM AKDT 1:17 AM AKDT
Civil Twilight Sun does not rise Sun does not rise
Nautical Twilight Sun does not rise Sun does not rise
Astronomical Twilight Sun does not rise Sun does not rise
Moon 7:05 PM AKDT (7/7) 2:06 AM AKDT (7/7)
Length of Visible Light 24h 00m
Length of Day
20h 59m
Waxing Gibbous, 73% of the Moon is Illuminated
Jul 7
Waxing Gibbous
Jul 12
Full
Jul 18
Last Quarter
Jul 26
New
Aug 3
First Quarter

Hourly Weather History & Observations

Time (AKDT) Temp. Heat Index Dew Point Humidity Pressure Visibility Wind Dir Wind Speed Gust Speed Precip Events Conditions
12:16 AM 66.2 °F - 53.6 °F 64% 29.77 in 10.0 mi NNE 5.8 mph - N/A   Clear
12:36 AM 64.4 °F - 55.4 °F 73% 29.77 in 10.0 mi Calm Calm - N/A   Clear
12:56 AM 62.6 °F - 53.6 °F 72% 29.77 in 10.0 mi ENE 4.6 mph - N/A   Clear
1:16 AM 60.8 °F - 55.4 °F 82% 29.77 in 10.0 mi NNE 4.6 mph - N/A   Clear
1:36 AM 60.8 °F - 55.4 °F 82% 29.77 in 10.0 mi NE 3.5 mph - N/A   Clear
1:56 AM 60.8 °F - 55.4 °F 82% 29.77 in 10.0 mi NNE 4.6 mph - N/A   Clear
2:16 AM 62.6 °F - 55.4 °F 77% 29.77 in 10.0 mi ENE 4.6 mph - N/A   Clear
2:36 AM 62.6 °F - 55.4 °F 77% 29.77 in 10.0 mi Calm Calm - N/A   Clear
2:56 AM 62.6 °F - 55.4 °F 77% 29.77 in 10.0 mi NE 4.6 mph - N/A   Clear
3:16 AM 62.6 °F - 53.6 °F 72% 29.77 in 10.0 mi NE 3.5 mph - N/A   Clear
3:36 AM 62.6 °F - 53.6 °F 72% 29.76 in 10.0 mi NNE 4.6 mph - N/A   Clear
3:56 AM 62.6 °F - 53.6 °F 72% 29.76 in 10.0 mi NNE 5.8 mph - N/A   Clear
4:16 AM 62.6 °F - 53.6 °F 72% 29.76 in 10.0 mi NE 4.6 mph - N/A   Clear
4:36 AM 62.6 °F - 53.6 °F 72% 29.75 in 10.0 mi NE 4.6 mph - N/A   Clear
4:56 AM 60.8 °F - 53.6 °F 77% 29.75 in 10.0 mi NE 3.5 mph - N/A   Clear
5:16 AM 60.8 °F - 51.8 °F 72% 29.75 in 10.0 mi Calm Calm - N/A   Clear
5:36 AM 60.8 °F - 51.8 °F 72% 29.75 in 10.0 mi WNW 3.5 mph - N/A   Clear
5:56 AM 59.0 °F - 51.8 °F 77% 29.74 in 10.0 mi WNW 3.5 mph - N/A   Clear
6:16 AM 59.0 °F - 53.6 °F 82% 29.74 in 10.0 mi Calm Calm - N/A   Clear
6:36 AM 60.8 °F - 53.6 °F 77% 29.74 in 10.0 mi Calm Calm - N/A   Clear
6:56 AM 57.2 °F - 53.6 °F 88% 29.73 in 10.0 mi Calm Calm - N/A   Scattered Clouds
7:16 AM 62.6 °F - 53.6 °F 72% 29.73 in 10.0 mi Calm Calm - N/A   Partly Cloudy
7:36 AM 66.2 °F - 51.8 °F 60% 29.73 in 10.0 mi NE 3.5 mph - N/A   Clear
7:56 AM 68.0 °F - 51.8 °F 56% 29.72 in 10.0 mi NNE 5.8 mph - N/A   Clear
8:16 AM 69.8 °F - 51.8 °F 53% 29.71 in 10.0 mi North 9.2 mph - N/A   Clear
8:36 AM 69.8 °F - 50.0 °F 49% 29.71 in 10.0 mi North 6.9 mph - N/A   Clear
8:56 AM 71.6 °F - 50.0 °F 46% 29.71 in 10.0 mi North 6.9 mph - N/A   Clear
9:16 AM 71.6 °F - 50.0 °F 46% 29.70 in 10.0 mi North 10.4 mph 16.1 mph N/A   Clear
9:36 AM 73.4 °F - 50.0 °F 44% 29.69 in 10.0 mi North 9.2 mph - N/A   Clear
9:56 AM 73.4 °F - 50.0 °F 44% 29.69 in 10.0 mi NNE 8.1 mph - N/A   Clear
10:16 AM 75.2 °F - 50.0 °F 41% 29.68 in 10.0 mi North 9.2 mph 16.1 mph N/A   Clear
10:36 AM 75.2 °F - 51.8 °F 44% 29.68 in 10.0 mi North 9.2 mph 16.1 mph N/A   Clear
10:56 AM 77.0 °F - 51.8 °F 41% 29.67 in 10.0 mi North 9.2 mph - N/A   Clear
11:16 AM 78.8 °F - 51.8 °F 39% 29.67 in 10.0 mi North 9.2 mph 16.1 mph N/A   Clear
11:36 AM 78.8 °F - 50.0 °F 36% 29.67 in 10.0 mi North 10.4 mph 17.3 mph N/A   Clear
11:56 AM 80.6 °F - 51.8 °F 37% 29.67 in 10.0 mi NNE 8.1 mph - N/A   Clear
12:16 PM 80.6 °F - 51.8 °F 37% 29.66 in 10.0 mi NNE 9.2 mph - N/A   Clear
12:36 PM 82.4 °F - 51.8 °F 35% 29.66 in 10.0 mi NE 6.9 mph - N/A   Scattered Clouds
12:56 PM 84.2 °F 82.8 °F 53.6 °F 35% 29.65 in 10.0 mi ENE 8.1 mph - N/A   Partly Cloudy
1:16 PM 84.2 °F - 51.8 °F 33% 29.65 in 10.0 mi ENE 8.1 mph 16.1 mph N/A   Clear
1:36 PM 82.4 °F - 51.8 °F 35% 29.65 in 10.0 mi East 9.2 mph - N/A   Clear
1:56 PM 84.2 °F 82.8 °F 53.6 °F 35% 29.65 in 10.0 mi East 12.7 mph 17.3 mph N/A   Scattered Clouds
2:16 PM 69.8 °F - 57.2 °F 64% 29.67 in 10.0 mi SSW 9.2 mph 18.4 mph N/A   Scattered Clouds
2:36 PM 71.6 °F - 60.8 °F 69% 29.68 in 10.0 mi SSW 9.2 mph 16.1 mph N/A   Mostly Cloudy
2:56 PM 68.0 °F - 57.2 °F 68% 29.69 in 10.0 mi SW 12.7 mph 18.4 mph N/A   Scattered Clouds
3:16 PM 66.2 °F - 57.2 °F 73% 29.70 in 10.0 mi SSW 11.5 mph 18.4 mph N/A   Partly Cloudy
3:36 PM 66.2 °F - 59.0 °F 78% 29.71 in 10.0 mi SW 10.4 mph - N/A   Mostly Cloudy
3:56 PM 66.2 °F - 57.2 °F 73% 29.73 in 10.0 mi South 12.7 mph 19.6 mph N/A   Mostly Cloudy
4:16 PM 64.4 °F - 55.4 °F 73% 29.74 in 10.0 mi SSW 13.8 mph 21.9 mph N/A   Mostly Cloudy
4:36 PM 62.6 °F - 55.4 °F 77% 29.75 in 10.0 mi South 15.0 mph 19.6 mph N/A   Overcast
4:56 PM 62.6 °F - 55.4 °F 77% 29.76 in 10.0 mi South 15.0 mph - N/A   Overcast
5:16 PM 62.6 °F - 53.6 °F 72% 29.76 in 10.0 mi South 13.8 mph 18.4 mph N/A   Overcast
5:36 PM 62.6 °F - 53.6 °F 72% 29.77 in 10.0 mi SSW 10.4 mph - N/A   Overcast
5:56 PM 62.6 °F - 53.6 °F 72% 29.77 in 10.0 mi SSW 11.5 mph 18.4 mph N/A   Overcast
6:16 PM 62.6 °F - 53.6 °F 72% 29.77 in 10.0 mi SSW 9.2 mph 17.3 mph N/A   Overcast
6:36 PM 62.6 °F - 53.6 °F 72% 29.77 in 10.0 mi SW 9.2 mph - N/A   Overcast
6:56 PM 60.8 °F - 53.6 °F 77% 29.77 in 10.0 mi SW 8.1 mph 16.1 mph N/A   Overcast
7:16 PM 60.8 °F - 51.8 °F 72% 29.78 in 10.0 mi SSW 8.1 mph - N/A   Overcast
7:36 PM 60.8 °F - 51.8 °F 72% 29.79 in 10.0 mi SSW 10.4 mph 17.3 mph N/A   Overcast
7:56 PM 60.8 °F - 51.8 °F 72% 29.78 in 10.0 mi SSW 10.4 mph 16.1 mph N/A   Overcast
8:16 PM 62.6 °F - 51.8 °F 68% 29.78 in 10.0 mi SW 8.1 mph - N/A   Overcast
8:36 PM 60.8 °F - 51.8 °F 72% 29.79 in 10.0 mi SW 9.2 mph - N/A   Overcast
8:56 PM 60.8 °F - 51.8 °F 72% 29.79 in 10.0 mi SW 8.1 mph - N/A   Overcast
9:16 PM 60.8 °F - 53.6 °F 77% 29.78 in 10.0 mi SW 6.9 mph - N/A   Overcast
9:36 PM 60.8 °F - 51.8 °F 72% 29.79 in 10.0 mi WSW 5.8 mph - N/A   Mostly Cloudy
9:56 PM 60.8 °F - 51.8 °F 72% 29.79 in 10.0 mi SW 4.6 mph - N/A   Mostly Cloudy
10:16 PM 60.8 °F - 51.8 °F 72% 29.79 in 10.0 mi SW 4.6 mph - N/A   Mostly Cloudy
10:36 PM 60.8 °F - 51.8 °F 72% 29.80 in 10.0 mi SW 3.5 mph - N/A   Partly Cloudy
10:56 PM 59.0 °F - 51.8 °F 77% 29.81 in 10.0 mi Calm Calm - N/A   Clear
11:16 PM 60.8 °F - 51.8 °F 72% 29.81 in 10.0 mi Calm Calm - N/A   Clear
11:36 PM 60.8 °F - 51.8 °F 72% 29.81 in 10.0 mi Calm Calm - N/A   Clear
11:56 PM 59.0 °F - 51.8 °F 77% 29.82 in 10.0 mi Calm Calm - N/A   Clear